createdAt,value
2022-12-09T00:00:52.148Z,31.77
2022-12-09T00:03:23.420Z,31.90
2022-12-09T00:05:50.910Z,32.13
2022-12-09T00:08:17.682Z,29.60
2022-12-09T00:10:45.491Z,31.00
2022-12-09T00:13:12.247Z,31.92
2022-12-09T00:15:42.922Z,32.78
2022-12-09T00:18:10.238Z,30.52
2022-12-09T00:20:36.812Z,30.83
2022-12-09T00:23:03.925Z,30.65
2022-12-09T00:25:30.412Z,31.92
2022-12-09T00:27:57.623Z,31.63
2022-12-09T00:30:24.387Z,32.03
2022-12-09T00:32:51.150Z,32.10
2022-12-09T00:35:17.783Z,30.48
2022-12-09T00:37:44.388Z,31.15
2022-12-09T00:40:11.934Z,31.20
2022-12-09T00:42:38.722Z,32.75
2022-12-09T00:45:06.121Z,31.85
2022-12-09T00:47:32.850Z,31.55
2022-12-09T00:49:59.497Z,32.05
2022-12-09T00:52:26.216Z,30.60
2022-12-09T00:54:52.934Z,32.10
2022-12-09T00:57:20.270Z,32.25
2022-12-09T00:59:46.818Z,29.92
2022-12-09T01:02:13.716Z,32.15
2022-12-09T01:04:40.405Z,31.25
2022-12-09T01:07:07.031Z,31.98
2022-12-09T01:09:34.905Z,31.90
2022-12-09T01:12:01.646Z,31.08
2022-12-09T01:14:28.344Z,32.30
2022-12-09T01:16:54.949Z,30.08
2022-12-09T01:19:21.791Z,31.73
2022-12-09T01:21:48.375Z,31.20
2022-12-09T01:24:15.369Z,31.75
2022-12-09T01:26:42.200Z,31.98
2022-12-09T01:29:09.889Z,33.05
2022-12-09T01:31:36.791Z,32.63
2022-12-09T01:34:03.469Z,31.30
2022-12-09T01:36:31.064Z,32.85
2022-12-09T01:38:59.357Z,30.60
2022-12-09T01:41:26.817Z,32.22
2022-12-09T01:44:19.566Z,31.55
2022-12-09T01:46:47.301Z,31.48
2022-12-09T01:49:25.228Z,32.28
2022-12-09T01:52:19.082Z,32.78
2022-12-09T01:54:47.308Z,32.67
2022-12-09T01:57:14.637Z,35.17
2022-12-09T01:59:42.482Z,33.33
2022-12-09T02:02:14.874Z,35.03
2022-12-09T02:04:46.079Z,32.75
2022-12-09T02:07:13.371Z,31.48
2022-12-09T02:09:40.827Z,33.92
2022-12-09T02:12:12.986Z,33.53
2022-12-09T02:14:45.397Z,32.63
2022-12-09T02:17:36.169Z,33.65
2022-12-09T02:20:19.313Z,32.83
2022-12-09T02:23:07.849Z,33.50
2022-12-09T02:26:04.761Z,33.22
2022-12-09T02:29:06.830Z,33.63
2022-12-09T02:31:54.143Z,33.67
2022-12-09T02:34:23.225Z,35.20
2022-12-09T02:37:00.480Z,31.98
2022-12-09T02:39:55.784Z,34.90
2022-12-09T02:42:25.938Z,36.45
2022-12-09T02:44:52.656Z,34.20
2022-12-09T02:47:24.467Z,35.97
2022-12-09T02:49:54.853Z,34.25
2022-12-09T02:52:23.055Z,32.90
2022-12-09T02:54:50.797Z,36.85
2022-12-09T02:57:23.989Z,32.97
2022-12-09T02:59:50.717Z,34.83
2022-12-09T03:02:26.332Z,34.85
2022-12-09T03:05:26.599Z,35.28
2022-12-09T03:08:25.850Z,35.65
2022-12-09T03:11:09.074Z,34.65
2022-12-09T03:14:12.528Z,36.35
2022-12-09T03:16:44.320Z,34.08
2022-12-09T03:19:58.946Z,34.92
2022-12-09T03:22:29.347Z,34.38
2022-12-09T03:25:08.725Z,35.15
2022-12-09T03:27:43.640Z,35.55
2022-12-09T03:30:11.365Z,35.33
2022-12-09T03:32:40.604Z,37.38
2022-12-09T03:35:17.564Z,36.53
2022-12-09T03:37:46.478Z,36.95
2022-12-09T03:40:17.963Z,35.75
2022-12-09T03:43:03.116Z,36.83
2022-12-09T03:45:30.442Z,38.05
2022-12-09T03:47:57.529Z,36.45
2022-12-09T03:50:28.770Z,37.17
2022-12-09T03:53:14.210Z,35.22
2022-12-09T03:56:07.962Z,37.13
2022-12-09T03:58:37.021Z,40.15
2022-12-09T04:01:04.302Z,38.13
2022-12-09T04:03:32.910Z,37.53
2022-12-09T04:05:59.891Z,37.47
2022-12-09T04:08:26.665Z,35.20
2022-12-09T04:10:53.421Z,37.33
2022-12-09T04:13:20.372Z,35.72
2022-12-09T04:15:47.083Z,37.55
2022-12-09T04:18:13.907Z,36.22
2022-12-09T04:20:40.560Z,36.97
2022-12-09T04:23:07.225Z,42.33
2022-12-09T04:25:34.093Z,36.15
2022-12-09T04:28:00.625Z,37.60
2022-12-09T04:30:27.276Z,34.50
2022-12-09T04:32:53.964Z,36.17
2022-12-09T04:35:20.614Z,36.88
2022-12-09T04:37:47.389Z,35.55
2022-12-09T04:40:21.243Z,35.72
2022-12-09T04:42:50.113Z,37.38
2022-12-09T04:45:16.740Z,36.42
2022-12-09T04:47:43.343Z,37.13
2022-12-09T04:50:10.787Z,37.10
2022-12-09T04:52:37.824Z,37.35
2022-12-09T04:55:04.675Z,36.53
2022-12-09T04:57:31.479Z,36.58
2022-12-09T04:59:58.069Z,36.20
2022-12-09T05:02:24.806Z,36.90
2022-12-09T05:04:52.260Z,37.17
2022-12-09T05:07:19.530Z,36.33
2022-12-09T05:09:46.546Z,37.47
2022-12-09T05:12:13.181Z,36.88
2022-12-09T05:14:40.051Z,38.45
2022-12-09T05:17:07.486Z,35.17
2022-12-09T05:19:34.469Z,37.28
2022-12-09T05:22:01.244Z,35.50
2022-12-09T05:24:27.859Z,35.17
2022-12-09T05:26:54.854Z,35.35
2022-12-09T05:29:23.501Z,37.17
2022-12-09T05:31:51.744Z,38.05
2022-12-09T05:34:19.092Z,37.92
2022-12-09T05:36:46.129Z,36.05
2022-12-09T05:39:12.783Z,34.33
2022-12-09T05:41:39.646Z,37.03
2022-12-09T05:44:06.467Z,36.22
2022-12-09T05:46:35.398Z,37.28
2022-12-09T05:49:02.962Z,38.05
2022-12-09T05:51:30.657Z,36.03
2022-12-09T05:54:01.300Z,40.13
2022-12-09T05:56:28.599Z,36.70
2022-12-09T05:58:56.488Z,38.92
2022-12-09T06:01:24.451Z,38.92
2022-12-09T06:03:52.964Z,36.25
2022-12-09T06:06:23.200Z,39.13
2022-12-09T06:08:50.180Z,38.17
2022-12-09T06:11:19.645Z,35.53
2022-12-09T06:13:47.783Z,35.13
2022-12-09T06:16:19.718Z,37.72
2022-12-09T06:18:47.774Z,35.22
2022-12-09T06:21:15.848Z,36.20
2022-12-09T06:23:43.611Z,35.70
2022-12-09T06:26:22.313Z,36.80
2022-12-09T06:28:49.524Z,37.33
2022-12-09T06:31:16.839Z,38.45
2022-12-09T06:34:00.017Z,36.88
2022-12-09T06:36:29.635Z,37.20
2022-12-09T06:39:05.909Z,37.20
2022-12-09T06:41:36.540Z,36.78
2022-12-09T06:44:04.125Z,37.30
2022-12-09T06:46:31.229Z,35.78
2022-12-09T06:48:57.963Z,37.03
2022-12-09T06:51:26.091Z,36.47
2022-12-09T06:53:53.592Z,37.97
2022-12-09T06:56:20.977Z,37.95
2022-12-09T06:58:47.693Z,36.22
2022-12-09T07:01:17.587Z,37.08
2022-12-09T07:03:47.994Z,38.33
2022-12-09T07:06:37.658Z,37.55
2022-12-09T07:09:09.668Z,38.03
2022-12-09T07:11:37.599Z,37.70
2022-12-09T07:14:04.568Z,39.05
2022-12-09T07:16:31.984Z,37.45
2022-12-09T07:18:59.385Z,39.80
2022-12-09T07:21:27.023Z,37.20
2022-12-09T07:23:54.842Z,38.25
2022-12-09T07:26:22.231Z,36.03
2022-12-09T07:28:50.451Z,37.17
2022-12-09T07:31:26.305Z,37.65
2022-12-09T07:33:54.626Z,35.67
2022-12-09T07:36:24.271Z,38.45
2022-12-09T07:38:58.558Z,35.35
2022-12-09T07:41:25.376Z,35.92
2022-12-09T07:43:52.296Z,38.03
2022-12-09T07:46:20.806Z,37.03
2022-12-09T07:48:48.469Z,35.45
2022-12-09T07:51:16.301Z,36.55
2022-12-09T07:53:43.227Z,37.28
2022-12-09T07:56:12.506Z,35.90
2022-12-09T07:58:39.111Z,39.25
2022-12-09T08:01:14.171Z,35.60
2022-12-09T08:03:42.497Z,36.25
2022-12-09T08:06:13.971Z,35.38
2022-12-09T08:08:41.081Z,37.05
2022-12-09T08:11:27.529Z,37.22
2022-12-09T08:14:02.861Z,35.10
2022-12-09T08:16:32.836Z,36.95
2022-12-09T08:19:00.034Z,36.85
2022-12-09T08:21:32.061Z,33.70
2022-12-09T08:24:01.525Z,35.88
2022-12-09T08:26:32.425Z,33.92
2022-12-09T08:29:00.154Z,35.40
2022-12-09T08:31:28.816Z,36.15
2022-12-09T08:33:56.195Z,34.20
2022-12-09T08:36:27.540Z,33.28
2022-12-09T08:38:55.270Z,35.88
2022-12-09T08:41:37.768Z,34.60
2022-12-09T08:44:13.685Z,33.08
2022-12-09T08:46:43.633Z,33.05
2022-12-09T08:49:10.970Z,34.80
2022-12-09T08:51:38.150Z,34.03
2022-12-09T08:54:06.013Z,32.85
2022-12-09T08:56:32.904Z,33.85
2022-12-09T08:58:59.643Z,33.08
2022-12-09T09:01:38.117Z,32.80
2022-12-09T09:04:14.245Z,35.67
2022-12-09T09:06:43.511Z,34.47
2022-12-09T09:09:12.110Z,33.03
2022-12-09T09:11:40.493Z,32.22
2022-12-09T09:14:09.379Z,33.67
2022-12-09T09:16:38.900Z,33.40
2022-12-09T09:19:06.693Z,32.40
2022-12-09T09:21:34.707Z,32.42
2022-12-09T09:24:02.214Z,33.92
2022-12-09T09:26:29.601Z,33.63
2022-12-09T09:28:58.119Z,36.55
2022-12-09T09:31:25.884Z,32.35
2022-12-09T09:33:54.914Z,32.38
2022-12-09T09:36:24.900Z,32.38
2022-12-09T09:38:55.062Z,34.33
2022-12-09T09:41:43.592Z,32.95
2022-12-09T09:44:25.574Z,34.05
2022-12-09T09:46:54.521Z,32.53
2022-12-09T09:49:50.366Z,31.67
2022-12-09T09:52:20.498Z,33.20
2022-12-09T09:54:47.409Z,31.52
2022-12-09T09:57:52.371Z,32.53
2022-12-09T10:00:24.776Z,31.80
2022-12-09T10:02:59.711Z,32.30
2022-12-09T10:05:35.992Z,31.25
2022-12-09T10:08:24.856Z,32.20
2022-12-09T10:10:58.810Z,30.90
2022-12-09T10:13:52.679Z,31.63
2022-12-09T10:16:26.527Z,31.85
2022-12-09T10:19:09.275Z,32.17
2022-12-09T10:21:42.420Z,29.70
2022-12-09T10:24:26.328Z,32.00
2022-12-09T10:27:27.185Z,29.92
2022-12-09T10:30:07.177Z,31.02
2022-12-09T10:32:37.600Z,32.40
2022-12-09T10:35:16.838Z,31.85
2022-12-09T10:37:44.580Z,30.30
2022-12-09T10:40:13.558Z,29.83
2022-12-09T10:43:15.423Z,29.92
2022-12-09T10:48:48.619Z,28.50
2022-12-09T10:51:19.669Z,28.05
2022-12-09T10:54:09.756Z,30.70
2022-12-09T10:56:40.017Z,30.98
2022-12-09T10:59:26.529Z,29.90
2022-12-09T11:01:55.945Z,32.88
2022-12-09T11:04:29.488Z,29.58
2022-12-09T11:07:07.730Z,30.40
2022-12-09T11:09:38.966Z,30.13
2022-12-09T11:12:27.344Z,31.10
2022-12-09T11:15:38.302Z,30.45
2022-12-09T11:18:07.123Z,29.83
2022-12-09T11:20:35.763Z,30.67
2022-12-09T11:23:12.281Z,28.63
2022-12-09T11:25:50.442Z,28.98
2022-12-09T11:28:17.304Z,30.15
2022-12-09T11:31:28.346Z,29.67
2022-12-09T11:33:57.439Z,29.20
2022-12-09T11:36:30.910Z,28.77
2022-12-09T11:39:19.394Z,28.13
2022-12-09T11:42:16.462Z,29.23
2022-12-09T11:44:49.001Z,30.85
2022-12-09T11:47:27.955Z,29.70
2022-12-09T11:50:13.042Z,26.63
2022-12-09T11:55:24.325Z,30.23
2022-12-09T11:57:56.237Z,30.70
2022-12-09T12:00:25.895Z,28.75
2022-12-09T12:03:12.041Z,29.00
2022-12-09T12:05:58.689Z,28.20
2022-12-09T12:08:43.562Z,28.38
2022-12-09T12:13:49.986Z,27.88
2022-12-09T12:16:27.446Z,26.95
2022-12-09T12:18:56.641Z,29.88
2022-12-09T12:22:17.406Z,27.58
2022-12-09T12:25:15.762Z,27.17
2022-12-09T12:27:53.698Z,30.05
2022-12-09T12:30:24.099Z,27.92
2022-12-09T12:36:28.741Z,26.60
2022-12-09T12:39:01.177Z,30.50
2022-12-09T12:41:49.134Z,28.60
2022-12-09T12:44:53.605Z,29.45
2022-12-09T12:47:44.500Z,27.52
2022-12-09T12:50:20.036Z,29.17
2022-12-09T12:53:20.491Z,28.08
2022-12-09T12:56:19.402Z,27.48
2022-12-09T12:59:18.277Z,27.48
2022-12-09T13:01:54.142Z,29.15
2022-12-09T13:04:20.775Z,28.65
2022-12-09T13:07:14.976Z,28.27
2022-12-09T13:09:50.178Z,28.02
2022-12-09T13:12:42.729Z,27.42
2022-12-09T13:15:15.484Z,27.00
2022-12-09T13:17:45.030Z,26.65
2022-12-09T13:20:34.280Z,27.83
2022-12-09T13:23:33.401Z,27.75
2022-12-09T13:26:21.202Z,27.75
2022-12-09T13:29:21.113Z,28.85
2022-12-09T13:32:02.081Z,29.27
2022-12-09T13:35:00.770Z,29.10
2022-12-09T13:37:39.242Z,28.35
2022-12-09T13:40:27.684Z,28.17
2022-12-09T13:43:21.953Z,26.88
2022-12-09T13:46:08.967Z,29.67
2022-12-09T13:48:43.059Z,27.52
2022-12-09T13:51:09.982Z,28.52
2022-12-09T13:54:00.097Z,28.55
2022-12-09T13:56:33.056Z,28.60
2022-12-09T13:59:39.328Z,29.88
2022-12-09T14:02:37.075Z,29.73
2022-12-09T14:05:06.678Z,28.45
2022-12-09T14:07:39.431Z,29.85
2022-12-09T14:10:06.830Z,29.08
2022-12-09T14:12:56.748Z,28.80
2022-12-09T14:15:23.185Z,28.27
2022-12-09T14:17:49.652Z,29.08
2022-12-09T14:20:31.733Z,29.35
2022-12-09T14:23:07.213Z,29.58
2022-12-09T14:25:33.790Z,31.33
2022-12-09T14:28:12.142Z,26.88
2022-12-09T14:31:03.387Z,28.55
2022-12-09T14:33:38.074Z,28.27
2022-12-09T14:36:30.561Z,28.50
2022-12-09T14:39:30.128Z,29.38
2022-12-09T14:42:06.273Z,29.17
2022-12-09T14:45:00.810Z,28.52
2022-12-09T14:47:29.808Z,30.13
2022-12-09T14:50:07.405Z,27.85
2022-12-09T14:52:34.529Z,26.85
2022-12-09T14:55:09.174Z,28.15
2022-12-09T14:57:41.693Z,28.48
2022-12-09T15:00:29.299Z,29.50
2022-12-09T15:06:16.434Z,28.48
2022-12-09T15:08:43.029Z,29.25
2022-12-09T15:11:23.449Z,28.70
2022-12-09T15:13:52.882Z,28.45
2022-12-09T15:16:23.426Z,29.10
2022-12-09T15:18:51.382Z,27.98
2022-12-09T15:21:36.117Z,28.55
2022-12-09T15:24:03.210Z,30.50
2022-12-09T15:26:32.741Z,30.90
2022-12-09T15:29:01.157Z,27.92
2022-12-09T15:31:32.077Z,28.45
2022-12-09T15:34:01.313Z,27.95
2022-12-09T15:36:36.713Z,29.38
2022-12-09T15:39:07.455Z,30.70
2022-12-09T15:41:59.668Z,28.70
2022-12-09T15:44:30.152Z,30.35
2022-12-09T15:46:58.042Z,29.30
2022-12-09T15:49:32.036Z,28.23
2022-12-09T15:52:03.129Z,29.30
2022-12-09T15:54:35.080Z,29.58
2022-12-09T15:57:04.222Z,30.02
2022-12-09T15:59:35.372Z,31.10
2022-12-09T16:02:02.200Z,30.17
2022-12-09T16:04:35.270Z,29.02
2022-12-09T16:07:12.863Z,29.13
2022-12-09T16:09:39.738Z,28.65
2022-12-09T16:12:24.920Z,28.00
2022-12-09T16:14:51.479Z,29.35
2022-12-09T16:17:20.505Z,29.20
2022-12-09T16:19:47.157Z,29.13
2022-12-09T16:22:25.649Z,28.70
2022-12-09T16:25:21.856Z,30.70
2022-12-09T16:27:55.832Z,28.92
2022-12-09T16:30:24.849Z,29.20
2022-12-09T16:32:54.093Z,31.38
2022-12-09T16:35:25.385Z,27.90
2022-12-09T16:37:58.137Z,29.67
2022-12-09T16:40:24.626Z,29.10
2022-12-09T16:43:15.165Z,27.92
2022-12-09T16:45:47.666Z,28.92
2022-12-09T16:48:17.003Z,28.73
2022-12-09T16:50:43.612Z,29.48
2022-12-09T16:53:14.477Z,29.92
2022-12-09T16:55:50.139Z,29.35
2022-12-09T16:58:16.731Z,29.88
2022-12-09T17:00:43.510Z,29.60
2022-12-09T17:03:19.635Z,32.97
2022-12-09T17:05:48.013Z,28.75
2022-12-09T17:08:14.774Z,29.83
2022-12-09T17:10:42.002Z,29.05
2022-12-09T17:13:08.552Z,28.65
2022-12-09T17:15:35.242Z,29.73
2022-12-09T17:18:01.869Z,28.85
2022-12-09T17:20:28.341Z,30.15
2022-12-09T17:22:54.889Z,29.90
2022-12-09T17:25:21.408Z,30.20
2022-12-09T17:27:47.895Z,31.33
2022-12-09T17:30:14.498Z,30.27
2022-12-09T17:32:41.085Z,31.77
2022-12-09T17:35:12.496Z,31.48
2022-12-09T17:37:39.638Z,31.30
2022-12-09T17:40:06.596Z,31.42
2022-12-09T17:42:33.283Z,31.40
2022-12-09T17:44:59.809Z,31.08
2022-12-09T17:47:27.193Z,31.73
2022-12-09T17:49:53.676Z,29.08
2022-12-09T17:52:20.279Z,30.65
2022-12-09T17:54:47.646Z,31.55
2022-12-09T17:57:14.357Z,32.05
2022-12-09T17:59:40.858Z,31.50
2022-12-09T18:02:07.538Z,32.03
2022-12-09T18:04:34.146Z,31.38
2022-12-09T18:07:00.713Z,30.17
2022-12-09T18:09:27.237Z,32.05
2022-12-09T18:11:53.756Z,28.40
2022-12-09T18:14:20.250Z,27.95
2022-12-09T18:16:46.847Z,27.77
2022-12-09T18:19:16.563Z,29.38
2022-12-09T18:21:44.616Z,27.33
2022-12-09T18:24:11.149Z,27.65
2022-12-09T18:26:41.600Z,29.23
2022-12-09T18:29:09.328Z,28.60
2022-12-09T18:31:36.084Z,27.92
2022-12-09T18:34:02.599Z,27.85
2022-12-09T18:36:29.508Z,28.42
2022-12-09T18:38:58.144Z,30.15
2022-12-09T18:41:29.046Z,29.63
2022-12-09T18:43:57.984Z,28.88
2022-12-09T18:46:30.228Z,28.98
2022-12-09T18:49:02.153Z,28.10
2022-12-09T18:51:29.272Z,28.63
2022-12-09T18:53:58.481Z,27.52
2022-12-09T18:56:25.583Z,28.70
2022-12-09T18:59:09.671Z,28.20
2022-12-09T19:01:41.090Z,29.52
2022-12-09T19:04:12.680Z,29.83
2022-12-09T19:06:41.511Z,29.48
2022-12-09T19:09:11.543Z,28.38
2022-12-09T19:11:40.019Z,28.15
2022-12-09T19:14:07.949Z,27.55
2022-12-09T19:16:35.443Z,29.27
2022-12-09T19:19:09.172Z,28.60
2022-12-09T19:21:36.849Z,28.08
2022-12-09T19:24:03.512Z,28.02
2022-12-09T19:26:32.597Z,29.83
2022-12-09T19:29:02.984Z,28.75
2022-12-09T19:31:30.893Z,29.48
2022-12-09T19:34:00.627Z,27.98
2022-12-09T19:36:29.143Z,28.95
2022-12-09T19:38:57.454Z,28.00
2022-12-09T19:41:24.107Z,29.65
2022-12-09T19:43:55.788Z,29.77
2022-12-09T19:46:22.704Z,29.35
2022-12-09T19:48:49.659Z,31.10
2022-12-09T19:51:17.813Z,30.52
2022-12-09T19:53:44.459Z,30.05
2022-12-09T19:56:15.417Z,31.20
2022-12-09T19:58:42.837Z,31.17
2022-12-09T20:01:11.413Z,30.00
2022-12-09T20:03:39.845Z,29.00
2022-12-09T20:06:08.857Z,28.40
2022-12-09T20:08:36.530Z,28.30
2022-12-09T20:11:03.860Z,29.42
2022-12-09T20:13:32.207Z,30.48
2022-12-09T20:16:03.895Z,30.20
2022-12-09T20:18:30.438Z,26.27
2022-12-09T20:21:01.449Z,28.17
2022-12-09T20:23:28.286Z,27.50
2022-12-09T20:25:54.828Z,28.88
2022-12-09T20:28:21.385Z,28.40
2022-12-09T20:30:47.886Z,27.88
2022-12-09T20:33:14.422Z,28.50
2022-12-09T20:35:40.958Z,28.15
2022-12-09T20:38:08.418Z,29.40
2022-12-09T20:40:40.346Z,28.92
2022-12-09T20:43:07.395Z,29.48
2022-12-09T20:45:34.195Z,28.30
2022-12-09T20:48:00.780Z,29.95
2022-12-09T20:50:27.445Z,31.30
2022-12-09T20:52:54.000Z,29.27
2022-12-09T20:55:22.059Z,31.60
2022-12-09T20:57:48.725Z,32.80
2022-12-09T21:00:15.522Z,34.08
2022-12-09T21:02:42.121Z,35.75
2022-12-09T21:05:08.831Z,35.25
2022-12-09T21:07:35.465Z,35.05
2022-12-09T21:10:01.993Z,36.88
2022-12-09T21:12:28.521Z,33.88
2022-12-09T21:14:55.510Z,38.80
2022-12-09T21:17:22.045Z,36.03
2022-12-09T21:19:48.586Z,36.92
2022-12-09T21:22:15.117Z,34.83
2022-12-09T21:24:41.690Z,35.25
2022-12-09T21:27:08.192Z,34.30
2022-12-09T21:29:34.664Z,33.58
2022-12-09T21:32:01.731Z,34.58
2022-12-09T21:34:28.435Z,32.88
2022-12-09T21:36:54.997Z,31.65
2022-12-09T21:39:21.533Z,33.00
2022-12-09T21:41:48.120Z,34.45
2022-12-09T21:44:17.570Z,34.35
2022-12-09T21:46:44.261Z,36.63
2022-12-09T21:49:11.769Z,33.55
2022-12-09T21:51:38.522Z,34.78
2022-12-09T21:54:05.565Z,34.63
2022-12-09T21:56:33.402Z,32.83
2022-12-09T21:59:00.365Z,32.47
2022-12-09T22:01:33.023Z,33.20
2022-12-09T22:04:01.081Z,34.53
2022-12-09T22:06:28.323Z,34.80
2022-12-09T22:08:55.249Z,33.35
2022-12-09T22:11:24.889Z,35.65
2022-12-09T22:13:52.628Z,33.97
2022-12-09T22:16:25.918Z,34.55
2022-12-09T22:18:54.496Z,34.83
2022-12-09T22:21:25.292Z,34.83
2022-12-09T22:23:57.683Z,34.67
2022-12-09T22:26:24.561Z,35.50
2022-12-09T22:28:51.556Z,35.28
2022-12-09T22:31:26.673Z,36.88
2022-12-09T22:33:55.739Z,37.00
2022-12-09T22:36:22.949Z,35.60
2022-12-09T22:38:49.986Z,36.35
2022-12-09T22:41:21.849Z,35.15
2022-12-09T22:43:49.946Z,34.58
2022-12-09T22:46:19.952Z,39.17
2022-12-09T22:48:47.205Z,36.80
2022-12-09T22:51:17.485Z,38.00
2022-12-09T22:53:44.715Z,37.33
2022-12-09T22:56:12.405Z,38.58
2022-12-09T22:58:39.734Z,35.97
2022-12-09T23:01:27.848Z,34.75
2022-12-09T23:03:55.505Z,35.30
2022-12-09T23:06:22.660Z,34.72
2022-12-09T23:08:49.223Z,38.42
2022-12-09T23:11:24.659Z,42.30
2022-12-09T23:13:52.156Z,39.38
2022-12-09T23:16:24.472Z,39.72
2022-12-09T23:18:52.321Z,39.72
2022-12-09T23:21:23.597Z,40.33
2022-12-09T23:23:58.576Z,39.50
2022-12-09T23:26:26.884Z,39.08
2022-12-09T23:28:55.718Z,39.92
2022-12-09T23:31:24.092Z,41.45
2022-12-09T23:33:51.723Z,43.28
2022-12-09T23:36:19.815Z,40.72
2022-12-09T23:38:50.152Z,43.40
2022-12-09T23:41:19.369Z,43.50
2022-12-09T23:43:49.745Z,43.78
2022-12-09T23:46:22.630Z,43.05
2022-12-09T23:48:50.674Z,43.85
2022-12-09T23:51:23.162Z,46.53
2022-12-09T23:53:51.515Z,46.70
2022-12-09T23:56:20.416Z,47.92
2022-12-09T23:58:47.691Z,48.17
